Terminal Aerodrome Forecast
Issued by NWS Wakefield, VA

Home | Current Version | Previous Version | Text Only | Print | Product List | Glossary On
Versions: 1 2 3 4 5 6 7 8 9 10 11 12 13 14 15 16 17 18 19 20 21 22 23 24 25
000
FTUS41 KAKQ 052300
TAFECG
TAF
KECG 052340Z 0600/0624 02013KT 4SM -RA OVC012
      TEMPO 0602/0605 2SM -SN BR OVC004
     FM060500 36020G28KT P6SM OVC015
     FM060900 36022G32KT P6SM BKN050
     FM061400 35018G25KT P6SM BKN100 OVC250=

USA.gov is the U.S. government's official web portal to all federal, state and local government web resources and services.